Ana Sayfa
METAR-TAF:

METAR-TAF

Havaalanları :

Sivas Nuri Demirağ Havalimanı

Sivas, Türkiye

Enlem: 39-45N, Boylam: 037-01E, yükseklik: 1285 m

Güncel hava durumu gözlemi

Rapor saat 15:50 UTC de 20 dakika önce yapıldı.
Rüzgar kuzeydan 5 kt
Sıcaklık 6°C
Nem 45%
Basınç 1025 hPa
Görüş mesafesi 10 km veya daha fazla
1500 m altında bulut yok ve kümülonimbus yok

METAR: LTAR 181550Z 35005KT CAVOK 06/M05 Q1025

Saat: 19:10 (16:10 UTC)

Tahmin

Rapor saat 13:40 UTC de 2 saat ve 30 dakika önce yapıldı.
Ayın 18'si saat 15 UTC'den ayın 18'si saat 24 UTC'ye kadar geçerli Tahmin
Rüzgar kuzeybatıdan 8 kt
Görüş mesafesi 10 km veya daha fazla
1500 m altında bulut yok ve kümülonimbus yok

TAF: LTAR 181340Z 1815/1824 31008KT CAVOK

4.000'den fazla havaalanı için hava durumu gözlemleri ve tahminleri (METAR ve TAF raporları).

Kullanılabilir istasyonlar harita üzerinde sarı ve kırmızı noktalarla gösterilir.

İstasyonun adını görmek için fareyi noktanın üzerinde gezdirin.

Sonrasında hava gözlem ve tahminlerini görmek için tıklayın.

Haritayı değiştirmek için: yaklaştırmak için siyah artı işaretli yeşil düğmeye ve uzaklaştırmak için de eksi işaretli düğmeye hızla tıklayın; bitişik haritalar için yeşil okları kullanın.


METAR-TAF: